Sunday, November 19, 2017, 8:51 PM EST
Back to Local

KASH, Nashua, Boire Field Airport

Location: Nashua, NH, United States Lat: 42.782
Local Time: 8:51 PM EST ( 1:51 GMT) Lon: -71.515
Time Zone: US/Eastern Elev: 200 ft

Show me the last for .
Show Decoded

2017-11-19 19:56 METAR KASH 200056Z 30012G22KT 10SM SCT043 03/M06 A2956 RMK AO2 SLP021 T00281056
                 =
2017-11-19 18:56 METAR KASH 192356Z 29018G29KT 10SM BKN043 03/M05 A2953 RMK AO2 SLP011 T00331050
                 10089 20033 51046 =
2017-11-19 17:56 METAR KASH 192256Z 30012G22KT 10SM SCT043 04/M04 A2949 RMK AO2 SLP998 T00391039
                 =
2017-11-19 16:56 METAR KASH 192156Z 29012G23KT 10SM FEW040 04/M03 A2944 RMK AO2 SLP981 T00441033
                 =
2017-11-19 15:56 METAR KASH 192056Z 30010G35KT 10SM BKN042 06/M03 A2939 RMK AO2 SLP964 T00561028
                 53055 =
2017-11-19 14:56 METAR KASH 191956Z 29014G27KT 10SM BKN040 07/M01 A2933 RMK AO2 PRESRR SLP942
                 T00671011 =
2017-11-19 13:56 METAR KASH 191856Z 29019G30KT 10SM BKN040 08/M01 A2928 RMK AO2 SLP927 T00831006
                 =
2017-11-19 12:56 METAR KASH 191756Z COR 27017G27KT 10SM SCT039 09/01 A2923 RMK AO2 PK WND
                 28027/1756 SLP908 60009 T00890011 10139 20044 53040 =
2017-11-19 11:56 METAR KASH 191656Z 28020G28KT 10SM FEW025 OVC060 08/03 A2919 RMK AO2 PK WND
                 30028/1656 RAE05 SLP894 P0000 T00780028 =
2017-11-19 10:56 METAR KASH 191556Z 27013G30KT 10SM -RA SCT023 BKN034 OVC048 09/06 A2914 RMK AO2
                 PK WND 27030/1547 WSHFT 1542 RAE35B53 SLP879 P0003 T00940056 =
2017-11-19 10:45 METAR KASH 191545Z 28014G22KT 10SM FEW013 BKN026 OVC075 13/11 A2913 RMK AO2
                 RAE35 PRESRR P0003 =
2017-11-19 10:15 METAR KASH 191515Z VRB04KT 10SM -RA FEW011 BKN037 OVC085 14/13 A2910 RMK AO2
                 P0003 =
2017-11-19 09:56 METAR KASH 191456Z VRB05KT 10SM -RA SCT011 BKN024 OVC075 14/13 A2911 RMK AO2
                 RAE00B28 SLP868 P0003 60006 T01390133 56026 =
2017-11-19 09:48 METAR KASH 191448Z VRB03KT 8SM -RA FEW011 BKN033 OVC075 13/13 A2911 RMK AO2
                 RAE00B28 P0003 =
2017-11-19 09:41 METAR KASH 191441Z VRB03KT 4SM RA BR FEW009 BKN028 OVC075 13/13 A2911 RMK AO2
                 RAE00B28 P0003 =
2017-11-19 09:38 METAR KASH 191438Z VRB03KT 4SM RA BR SCT025 BKN033 OVC075 13/13 A2911 RMK AO2
                 RAE00B28 P0002 =
2017-11-19 08:56 METAR KASH 191356Z VRB03KT 4SM -RA BR FEW010 BKN024 OVC031 10/10 A2913 RMK AO2
                 SLP876 P0001 T01000100 =
2017-11-19 08:40 METAR KASH 191340Z 12003KT 3SM -RA BR FEW022 BKN028 OVC033 07/07 A2913 RMK AO2
                 P0001 =
2017-11-19 08:16 METAR KASH 191316Z 00000KT 2 1/2SM -RA BR FEW021 OVC030 06/06 A2913 RMK AO2
                 P0000 =
2017-11-19 07:56 METAR KASH 191256Z 30004KT 3SM -RA BR BKN023 OVC028 06/06 A2917 RMK AO2 SLP887
                 P0002 T00560056 =
2017-11-19 07:45 METAR KASH 191245Z 30003KT 4SM -RA BR BKN023 BKN030 OVC070 06/06 A2916 RMK AO2
                 P0001 =
2017-11-19 07:32 METAR KASH 191232Z 00000KT 3SM -RA BR FEW029 BKN070 OVC110 05/05 A2916 RMK AO2
                 P0001 =
2017-11-19 07:16 METAR KASH 191216Z 00000KT 2SM -RA BR SCT022 BKN075 OVC110 05/05 A2918 RMK AO2
                 P0001 =
2017-11-19 07:04 METAR KASH 191204Z 00000KT 2 1/2SM -RA BR SCT016 BKN023 OVC100 05/05 A2918 RMK
                 AO2 P0001 =
2017-11-19 06:56 METAR KASH 191156Z 00000KT 3SM -RA BR FEW002 BKN016 OVC023 04/04 A2919 RMK AO2
                 SLP895 P0003 60007 70015 T00440044 10044 20028 55032 =
2017-11-19 06:48 METAR KASH 191148Z AUTO 00000KT 4SM RA BR SCT002 BKN016 OVC021 04/04 A2919 RMK
                 AO2 P0003 =
2017-11-19 05:56 METAR KASH 191056Z AUTO 00000KT 4SM -RA BR BKN002 BKN024 OVC090 04/04 A2919 RMK
                 AO2 PRESFR SLP895 P0002 T00390039 =
2017-11-19 05:46 METAR KASH 191046Z AUTO 00000KT 4SM -RA BR SCT004 BKN026 OVC085 03/03 A2920 RMK
                 AO2 P0002 =
2017-11-19 04:56 METAR KASH 190956Z AUTO 31005KT 4SM -RA BR OVC004 03/03 A2926 RMK AO2 SLP918
                 P0002 T00330033 =
2017-11-19 04:30 METAR KASH 190930Z AUTO 30005KT 3SM -RA BR OVC004 03/03 A2926 RMK AO2 P0002 =
2017-11-19 04:18 METAR KASH 190918Z AUTO 30004KT 2 1/2SM RA BR OVC004 03/03 A2927 RMK AO2 P0002 =
2017-11-19 03:56 METAR KASH 190856Z AUTO 00000KT 4SM -RA BR OVC004 03/03 A2928 RMK AO2 RAB22
                 SLP927 P0000 60000 T00330033 56045 =
2017-11-19 02:56 METAR KASH 190756Z AUTO 31005KT 4SM BR OVC004 03/03 A2932 RMK AO2
                 RAB0659E08UPB08E25 SLP941 P0000 T00280028 =
2017-11-19 01:56 METAR KASH 190656Z AUTO 31003KT 4SM BR OVC004 03/03 A2937 RMK AO2 RAE39UPB05E13
                 SLP958 P0000 T00280028 =
2017-11-19 01:45 METAR KASH 190645Z AUTO 32003KT 4SM BR BKN004 OVC013 03/03 A2939 RMK AO2
                 RAE39UPB05E13 P0000 =
2017-11-19 01:31 METAR KASH 190631Z AUTO 00000KT 5SM -RA BR FEW004 OVC013 03/03 A2940 RMK AO2
                 UPB05E13 P0000 =
2017-11-19 01:17 METAR KASH 190617Z AUTO 00000KT 4SM -RA BR SCT003 OVC015 03/03 A2941 RMK AO2
                 UPB05E13 P0000 =
2017-11-19 00:56 METAR KASH 190556Z AUTO 00000KT 4SM -RA BR OVC003 03/03 A2942 RMK AO2
                 RAE04B25UPB04E25 SLP972 P0001 60008 T00280028 10033 20022 58030 =
2017-11-19 00:04 METAR KASH 190504Z AUTO 00000KT 7SM UP BKN003 OVC010 03/03 A2946 RMK AO2
                 RAE04UPB04 PRESFR P0000 =
2017-11-18 23:56 METAR KASH 190456Z AUTO 00000KT 7SM -RA SCT003 BKN010 OVC027 02/02 A2947 RMK AO2
                 CIG 008V015 SLP991 P0001 T00220022 =
2017-11-18 23:51 METAR KASH 190451Z AUTO 00000KT 7SM -RA FEW003 BKN010 OVC027 02/02 A2947 RMK AO2
                 P0001 =
2017-11-18 23:24 METAR KASH 190424Z AUTO 00000KT 8SM -RA SCT007 OVC015 02/02 A2950 RMK AO2 P0001
                 =
2017-11-18 22:56 METAR KASH 190356Z AUTO 28003KT 8SM -RA OVC007 02/02 A2951 RMK AO2 UPE22RAB22
                 SLP003 P0001 T00220022 400561067 =
2017-11-18 22:15 METAR KASH 190315Z AUTO 29005KT 8SM UP BKN009 OVC016 02/02 A2953 RMK AO2 CIG
                 008V012 P0000 =
2017-11-18 22:08 METAR KASH 190308Z AUTO 29005KT 9SM UP BKN011 OVC021 02/02 A2954 RMK AO2 P0000 =
2017-11-18 21:56 METAR KASH 190256Z AUTO 29004KT 10SM UP SCT011 OVC022 03/02 A2955 RMK AO2
                 RAE27UPB27 SLP016 P0000 60005 T00280022 58038 =
2017-11-18 21:47 METAR KASH 190247Z AUTO 30003KT 10SM UP SCT011 OVC022 03/02 A2955 RMK AO2
                 RAE27UPB27 P0000 =
2017-11-18 21:28 METAR KASH 190228Z AUTO 30003KT 10SM UP BKN013 BKN019 OVC037 03/02 A2956 RMK AO2
                 RAE27UPB27 P0000 =
2017-11-18 20:56 METAR KASH 190156Z 30004KT 6SM -RA BR BKN019 BKN024 OVC040 03/02 A2959 RMK AO2
                 SLP030 P0005 T00280022 =

Support USWX by starting your Amazon purchase here.